sensor_id;sensor_type;location;lat;lon;timestamp;P1;durP1;ratioP1;P2;durP2;ratioP2
55007;SDS011;40902;45.116;21.296;2023-11-18T00:01:30;13.60;;;12.20;;
55007;SDS011;40902;45.116;21.296;2023-11-18T00:03:58;15.15;;;12.73;;
55007;SDS011;40902;45.116;21.296;2023-11-18T00:06:23;14.43;;;12.90;;
55007;SDS011;40902;45.116;21.296;2023-11-18T00:08:49;13.52;;;11.93;;
55007;SDS011;40902;45.116;21.296;2023-11-18T00:11:15;13.88;;;12.32;;
55007;SDS011;40902;45.116;21.296;2023-11-18T00:13:41;13.45;;;11.88;;
55007;SDS011;40902;45.116;21.296;2023-11-18T00:16:09;13.50;;;11.73;;
55007;SDS011;40902;45.116;21.296;2023-11-18T00:18:40;13.07;;;11.48;;
55007;SDS011;40902;45.116;21.296;2023-11-18T00:21:06;13.23;;;10.90;;
55007;SDS011;40902;45.116;21.296;2023-11-18T00:23:33;15.10;;;11.50;;
55007;SDS011;40902;45.116;21.296;2023-11-18T00:25:59;13.48;;;11.35;;
55007;SDS011;40902;45.116;21.296;2023-11-18T00:28:25;14.90;;;12.40;;
55007;SDS011;40902;45.116;21.296;2023-11-18T00:30:50;15.10;;;12.38;;
55007;SDS011;40902;45.116;21.296;2023-11-18T00:33:17;17.33;;;12.05;;
55007;SDS011;40902;45.116;21.296;2023-11-18T00:35:43;15.98;;;13.02;;
55007;SDS011;40902;45.116;21.296;2023-11-18T00:38:10;14.60;;;12.00;;
55007;SDS011;40902;45.116;21.296;2023-11-18T00:40:36;15.18;;;12.45;;
55007;SDS011;40902;45.116;21.296;2023-11-18T00:43:02;16.65;;;12.77;;
55007;SDS011;40902;45.116;21.296;2023-11-18T00:45:28;17.73;;;13.68;;
55007;SDS011;40902;45.116;21.296;2023-11-18T00:47:54;16.40;;;13.98;;
55007;SDS011;40902;45.116;21.296;2023-11-18T00:50:20;16.98;;;13.55;;
55007;SDS011;40902;45.116;21.296;2023-11-18T00:52:45;18.27;;;14.30;;
55007;SDS011;40902;45.116;21.296;2023-11-18T00:55:13;17.92;;;14.52;;
55007;SDS011;40902;45.116;21.296;2023-11-18T00:57:39;19.10;;;14.43;;
55007;SDS011;40902;45.116;21.296;2023-11-18T01:00:08;17.58;;;14.35;;
55007;SDS011;40902;45.116;21.296;2023-11-18T01:02:39;19.30;;;15.00;;
55007;SDS011;40902;45.116;21.296;2023-11-18T01:05:05;17.77;;;14.57;;
55007;SDS011;40902;45.116;21.296;2023-11-18T01:07:32;21.15;;;15.88;;
55007;SDS011;40902;45.116;21.296;2023-11-18T01:09:58;19.40;;;14.93;;
55007;SDS011;40902;45.116;21.296;2023-11-18T01:12:25;19.15;;;15.00;;
55007;SDS011;40902;45.116;21.296;2023-11-18T01:14:51;22.63;;;16.95;;
55007;SDS011;40902;45.116;21.296;2023-11-18T01:17:17;20.30;;;16.20;;
55007;SDS011;40902;45.116;21.296;2023-11-18T01:19:42;20.50;;;16.42;;
55007;SDS011;40902;45.116;21.296;2023-11-18T01:22:09;21.48;;;16.95;;
55007;SDS011;40902;45.116;21.296;2023-11-18T01:24:36;20.67;;;15.98;;
55007;SDS011;40902;45.116;21.296;2023-11-18T01:27:02;20.83;;;16.48;;
55007;SDS011;40902;45.116;21.296;2023-11-18T01:29:28;19.92;;;17.13;;
55007;SDS011;40902;45.116;21.296;2023-11-18T01:31:54;20.70;;;17.00;;
55007;SDS011;40902;45.116;21.296;2023-11-18T01:34:23;21.17;;;16.85;;
55007;SDS011;40902;45.116;21.296;2023-11-18T01:36:49;20.70;;;16.27;;
55007;SDS011;40902;45.116;21.296;2023-11-18T01:39:16;20.23;;;16.63;;
55007;SDS011;40902;45.116;21.296;2023-11-18T01:41:45;20.33;;;16.58;;
55007;SDS011;40902;45.116;21.296;2023-11-18T01:44:11;20.52;;;15.95;;
55007;SDS011;40902;45.116;21.296;2023-11-18T01:46:40;21.88;;;15.95;;
55007;SDS011;40902;45.116;21.296;2023-11-18T01:49:09;18.80;;;15.07;;
55007;SDS011;40902;45.116;21.296;2023-11-18T01:51:36;17.17;;;14.48;;
55007;SDS011;40902;45.116;21.296;2023-11-18T01:54:02;17.73;;;14.10;;
55007;SDS011;40902;45.116;21.296;2023-11-18T01:56:30;16.33;;;13.48;;
55007;SDS011;40902;45.116;21.296;2023-11-18T01:58:57;20.80;;;14.80;;
55007;SDS011;40902;45.116;21.296;2023-11-18T02:01:25;17.88;;;13.38;;
55007;SDS011;40902;45.116;21.296;2023-11-18T02:03:52;16.83;;;13.27;;
55007;SDS011;40902;45.116;21.296;2023-11-18T02:06:18;16.50;;;13.57;;
55007;SDS011;40902;45.116;21.296;2023-11-18T02:08:46;23.75;;;15.23;;
55007;SDS011;40902;45.116;21.296;2023-11-18T02:13:54;16.48;;;13.98;;
55007;SDS011;40902;45.116;21.296;2023-11-18T02:16:27;16.70;;;13.27;;
55007;SDS011;40902;45.116;21.296;2023-11-18T02:18:53;17.80;;;13.43;;
55007;SDS011;40902;45.116;21.296;2023-11-18T02:21:20;20.23;;;15.05;;
55007;SDS011;40902;45.116;21.296;2023-11-18T02:23:48;18.05;;;14.75;;
55007;SDS011;40902;45.116;21.296;2023-11-18T02:26:21;17.88;;;14.40;;
55007;SDS011;40902;45.116;21.296;2023-11-18T02:28:47;18.50;;;15.70;;
55007;SDS011;40902;45.116;21.296;2023-11-18T02:31:15;15.95;;;13.95;;
55007;SDS011;40902;45.116;21.296;2023-11-18T02:38:51;17.08;;;13.88;;
55007;SDS011;40902;45.116;21.296;2023-11-18T02:41:20;15.98;;;13.63;;
55007;SDS011;40902;45.116;21.296;2023-11-18T02:43:47;20.23;;;15.95;;
55007;SDS011;40902;45.116;21.296;2023-11-18T02:46:14;17.35;;;14.43;;
55007;SDS011;40902;45.116;21.296;2023-11-18T02:48:41;19.17;;;15.95;;
55007;SDS011;40902;45.116;21.296;2023-11-18T02:51:08;18.38;;;14.75;;
55007;SDS011;40902;45.116;21.296;2023-11-18T02:53:37;17.92;;;15.55;;
55007;SDS011;40902;45.116;21.296;2023-11-18T02:56:02;17.33;;;15.00;;
55007;SDS011;40902;45.116;21.296;2023-11-18T02:58:29;18.52;;;15.68;;
55007;SDS011;40902;45.116;21.296;2023-11-18T03:00:56;17.55;;;14.88;;
55007;SDS011;40902;45.116;21.296;2023-11-18T03:03:24;19.30;;;15.88;;
55007;SDS011;40902;45.116;21.296;2023-11-18T03:05:52;20.38;;;15.88;;
55007;SDS011;40902;45.116;21.296;2023-11-18T03:08:18;19.05;;;14.77;;
55007;SDS011;40902;45.116;21.296;2023-11-18T03:10:43;19.35;;;14.50;;
55007;SDS011;40902;45.116;21.296;2023-11-18T03:13:09;21.52;;;15.70;;
55007;SDS011;40902;45.116;21.296;2023-11-18T03:15:37;20.00;;;15.50;;
55007;SDS011;40902;45.116;21.296;2023-11-18T03:18:03;20.15;;;15.48;;
55007;SDS011;40902;45.116;21.296;2023-11-18T03:20:30;20.75;;;15.70;;
55007;SDS011;40902;45.116;21.296;2023-11-18T03:22:59;20.73;;;15.77;;
55007;SDS011;40902;45.116;21.296;2023-11-18T03:25:28;19.70;;;15.23;;
55007;SDS011;40902;45.116;21.296;2023-11-18T03:27:53;22.33;;;16.10;;
55007;SDS011;40902;45.116;21.296;2023-11-18T03:30:19;22.35;;;15.82;;
55007;SDS011;40902;45.116;21.296;2023-11-18T03:32:45;17.92;;;13.73;;
55007;SDS011;40902;45.116;21.296;2023-11-18T03:35:11;20.08;;;14.52;;
55007;SDS011;40902;45.116;21.296;2023-11-18T03:37:37;18.25;;;13.57;;
55007;SDS011;40902;45.116;21.296;2023-11-18T03:40:09;18.02;;;13.80;;
55007;SDS011;40902;45.116;21.296;2023-11-18T03:42:36;19.13;;;14.93;;
55007;SDS011;40902;45.116;21.296;2023-11-18T03:45:11;20.05;;;14.90;;
55007;SDS011;40902;45.116;21.296;2023-11-18T03:47:40;20.13;;;14.60;;
55007;SDS011;40902;45.116;21.296;2023-11-18T03:50:06;20.80;;;14.32;;
55007;SDS011;40902;45.116;21.296;2023-11-18T03:52:33;18.80;;;15.18;;
55007;SDS011;40902;45.116;21.296;2023-11-18T03:55:02;18.83;;;14.32;;
55007;SDS011;40902;45.116;21.296;2023-11-18T03:57:29;17.35;;;13.48;;
55007;SDS011;40902;45.116;21.296;2023-11-18T03:59:55;19.42;;;14.20;;
55007;SDS011;40902;45.116;21.296;2023-11-18T04:02:20;17.08;;;13.27;;
55007;SDS011;40902;45.116;21.296;2023-11-18T04:04:46;17.10;;;13.57;;
55007;SDS011;40902;45.116;21.296;2023-11-18T04:07:13;19.33;;;14.30;;
55007;SDS011;40902;45.116;21.296;2023-11-18T04:09:39;17.90;;;14.15;;
55007;SDS011;40902;45.116;21.296;2023-11-18T04:12:08;18.30;;;12.63;;
55007;SDS011;40902;45.116;21.296;2023-11-18T04:14:35;17.88;;;13.50;;
55007;SDS011;40902;45.116;21.296;2023-11-18T04:17:02;15.90;;;12.40;;
55007;SDS011;40902;45.116;21.296;2023-11-18T04:19:28;16.95;;;13.43;;
55007;SDS011;40902;45.116;21.296;2023-11-18T04:21:54;18.20;;;13.73;;
55007;SDS011;40902;45.116;21.296;2023-11-18T04:24:19;19.83;;;13.70;;
55007;SDS011;40902;45.116;21.296;2023-11-18T04:26:45;19.20;;;14.10;;
55007;SDS011;40902;45.116;21.296;2023-11-18T04:29:13;16.92;;;12.82;;
55007;SDS011;40902;45.116;21.296;2023-11-18T04:31:38;18.63;;;12.52;;
55007;SDS011;40902;45.116;21.296;2023-11-18T04:34:05;17.15;;;13.13;;
55007;SDS011;40902;45.116;21.296;2023-11-18T04:36:30;16.95;;;13.45;;
55007;SDS011;40902;45.116;21.296;2023-11-18T04:38:56;18.17;;;13.40;;
55007;SDS011;40902;45.116;21.296;2023-11-18T04:41:22;17.15;;;14.25;;
55007;SDS011;40902;45.116;21.296;2023-11-18T04:43:48;18.15;;;13.23;;
55007;SDS011;40902;45.116;21.296;2023-11-18T04:46:15;16.63;;;12.70;;
55007;SDS011;40902;45.116;21.296;2023-11-18T04:48:41;17.38;;;12.98;;
55007;SDS011;40902;45.116;21.296;2023-11-18T04:51:07;16.23;;;12.35;;
55007;SDS011;40902;45.116;21.296;2023-11-18T04:53:33;15.75;;;12.13;;
55007;SDS011;40902;45.116;21.296;2023-11-18T04:55:59;16.25;;;12.18;;
55007;SDS011;40902;45.116;21.296;2023-11-18T04:58:25;16.30;;;12.18;;
55007;SDS011;40902;45.116;21.296;2023-11-18T05:00:51;17.23;;;12.80;;
55007;SDS011;40902;45.116;21.296;2023-11-18T05:03:16;16.40;;;12.73;;
55007;SDS011;40902;45.116;21.296;2023-11-18T05:05:42;15.82;;;12.35;;
55007;SDS011;40902;45.116;21.296;2023-11-18T05:08:18;14.80;;;11.23;;
55007;SDS011;40902;45.116;21.296;2023-11-18T05:10:49;16.40;;;11.38;;
55007;SDS011;40902;45.116;21.296;2023-11-18T05:13:15;15.90;;;12.38;;
55007;SDS011;40902;45.116;21.296;2023-11-18T05:15:45;15.63;;;11.52;;
55007;SDS011;40902;45.116;21.296;2023-11-18T05:18:12;14.35;;;12.25;;
55007;SDS011;40902;45.116;21.296;2023-11-18T05:20:41;16.35;;;12.98;;
55007;SDS011;40902;45.116;21.296;2023-11-18T05:23:07;17.00;;;12.68;;
55007;SDS011;40902;45.116;21.296;2023-11-18T05:25:36;16.48;;;12.63;;
55007;SDS011;40902;45.116;21.296;2023-11-18T05:28:04;17.67;;;12.73;;
55007;SDS011;40902;45.116;21.296;2023-11-18T05:30:33;17.33;;;12.68;;
55007;SDS011;40902;45.116;21.296;2023-11-18T05:33:02;15.15;;;11.77;;
55007;SDS011;40902;45.116;21.296;2023-11-18T05:35:32;15.60;;;11.43;;
55007;SDS011;40902;45.116;21.296;2023-11-18T05:38:01;14.85;;;11.02;;
55007;SDS011;40902;45.116;21.296;2023-11-18T05:40:28;14.18;;;11.18;;
55007;SDS011;40902;45.116;21.296;2023-11-18T05:42:55;13.73;;;11.02;;
55007;SDS011;40902;45.116;21.296;2023-11-18T05:45:22;15.20;;;11.80;;
55007;SDS011;40902;45.116;21.296;2023-11-18T05:47:57;15.25;;;12.07;;
55007;SDS011;40902;45.116;21.296;2023-11-18T05:50:23;15.32;;;11.75;;
55007;SDS011;40902;45.116;21.296;2023-11-18T05:52:51;15.13;;;12.02;;
55007;SDS011;40902;45.116;21.296;2023-11-18T05:55:18;17.75;;;13.10;;
55007;SDS011;40902;45.116;21.296;2023-11-18T05:57:44;19.00;;;14.82;;
55007;SDS011;40902;45.116;21.296;2023-11-18T06:00:11;22.08;;;16.27;;
55007;SDS011;40902;45.116;21.296;2023-11-18T06:02:40;26.92;;;18.63;;
55007;SDS011;40902;45.116;21.296;2023-11-18T06:05:06;25.23;;;18.15;;
55007;SDS011;40902;45.116;21.296;2023-11-18T06:07:33;27.30;;;17.80;;
55007;SDS011;40902;45.116;21.296;2023-11-18T06:10:00;22.23;;;17.08;;
55007;SDS011;40902;45.116;21.296;2023-11-18T06:12:27;19.48;;;15.65;;
55007;SDS011;40902;45.116;21.296;2023-11-18T06:14:52;17.85;;;13.57;;
55007;SDS011;40902;45.116;21.296;2023-11-18T06:17:18;15.15;;;12.88;;
55007;SDS011;40902;45.116;21.296;2023-11-18T06:19:44;17.00;;;13.18;;
55007;SDS011;40902;45.116;21.296;2023-11-18T06:22:10;15.30;;;13.45;;
55007;SDS011;40902;45.116;21.296;2023-11-18T06:24:35;17.17;;;13.65;;
55007;SDS011;40902;45.116;21.296;2023-11-18T06:27:04;18.73;;;14.77;;
55007;SDS011;40902;45.116;21.296;2023-11-18T06:29:32;16.38;;;13.63;;
55007;SDS011;40902;45.116;21.296;2023-11-18T06:31:58;19.30;;;14.43;;
55007;SDS011;40902;45.116;21.296;2023-11-18T06:34:23;15.43;;;12.48;;
55007;SDS011;40902;45.116;21.296;2023-11-18T06:36:51;17.20;;;13.77;;
55007;SDS011;40902;45.116;21.296;2023-11-18T06:39:17;14.93;;;11.98;;
55007;SDS011;40902;45.116;21.296;2023-11-18T06:41:44;14.35;;;11.75;;
55007;SDS011;40902;45.116;21.296;2023-11-18T06:44:15;16.60;;;12.80;;
55007;SDS011;40902;45.116;21.296;2023-11-18T06:46:48;13.83;;;11.80;;
55007;SDS011;40902;45.116;21.296;2023-11-18T06:49:16;15.55;;;11.52;;
55007;SDS011;40902;45.116;21.296;2023-11-18T06:51:42;17.20;;;12.43;;
55007;SDS011;40902;45.116;21.296;2023-11-18T06:54:08;15.15;;;12.00;;
55007;SDS011;40902;45.116;21.296;2023-11-18T06:56:35;13.35;;;11.45;;
55007;SDS011;40902;45.116;21.296;2023-11-18T06:59:07;18.10;;;13.70;;
55007;SDS011;40902;45.116;21.296;2023-11-18T07:01:37;14.73;;;12.48;;
55007;SDS011;40902;45.116;21.296;2023-11-18T07:04:06;16.35;;;12.20;;
55007;SDS011;40902;45.116;21.296;2023-11-18T07:06:35;14.50;;;12.45;;
55007;SDS011;40902;45.116;21.296;2023-11-18T07:09:03;14.77;;;11.82;;
55007;SDS011;40902;45.116;21.296;2023-11-18T07:11:34;12.40;;;9.95;;
55007;SDS011;40902;45.116;21.296;2023-11-18T07:14:00;12.77;;;10.65;;
55007;SDS011;40902;45.116;21.296;2023-11-18T07:16:26;14.65;;;10.75;;
55007;SDS011;40902;45.116;21.296;2023-11-18T07:18:53;13.93;;;9.90;;
55007;SDS011;40902;45.116;21.296;2023-11-18T07:21:18;12.05;;;10.07;;
55007;SDS011;40902;45.116;21.296;2023-11-18T07:23:45;11.82;;;9.93;;
55007;SDS011;40902;45.116;21.296;2023-11-18T07:26:11;12.65;;;10.63;;
55007;SDS011;40902;45.116;21.296;2023-11-18T07:28:39;14.15;;;11.40;;
55007;SDS011;40902;45.116;21.296;2023-11-18T07:31:05;13.73;;;10.50;;
55007;SDS011;40902;45.116;21.296;2023-11-18T07:33:30;10.48;;;9.10;;
55007;SDS011;40902;45.116;21.296;2023-11-18T07:35:57;12.20;;;9.60;;
55007;SDS011;40902;45.116;21.296;2023-11-18T07:38:23;11.23;;;9.52;;
55007;SDS011;40902;45.116;21.296;2023-11-18T07:40:51;15.15;;;11.85;;
55007;SDS011;40902;45.116;21.296;2023-11-18T07:43:21;12.15;;;9.75;;
55007;SDS011;40902;45.116;21.296;2023-11-18T07:45:50;20.05;;;11.82;;
55007;SDS011;40902;45.116;21.296;2023-11-18T07:48:18;16.58;;;12.35;;
55007;SDS011;40902;45.116;21.296;2023-11-18T07:50:45;14.32;;;11.18;;
55007;SDS011;40902;45.116;21.296;2023-11-18T07:53:14;16.17;;;11.73;;
55007;SDS011;40902;45.116;21.296;2023-11-18T07:55:43;13.68;;;10.18;;
55007;SDS011;40902;45.116;21.296;2023-11-18T07:58:10;11.35;;;8.70;;
55007;SDS011;40902;45.116;21.296;2023-11-18T08:00:42;12.25;;;9.82;;
55007;SDS011;40902;45.116;21.296;2023-11-18T08:05:43;12.93;;;10.63;;
55007;SDS011;40902;45.116;21.296;2023-11-18T08:08:10;13.07;;;10.63;;
55007;SDS011;40902;45.116;21.296;2023-11-18T08:10:36;11.60;;;9.10;;
55007;SDS011;40902;45.116;21.296;2023-11-18T08:13:09;11.55;;;9.27;;
55007;SDS011;40902;45.116;21.296;2023-11-18T08:15:38;13.23;;;9.52;;
55007;SDS011;40902;45.116;21.296;2023-11-18T08:18:05;11.43;;;9.23;;
55007;SDS011;40902;45.116;21.296;2023-11-18T08:20:32;14.63;;;10.82;;
55007;SDS011;40902;45.116;21.296;2023-11-18T08:22:58;10.48;;;8.85;;
55007;SDS011;40902;45.116;21.296;2023-11-18T08:25:24;11.50;;;9.50;;
55007;SDS011;40902;45.116;21.296;2023-11-18T08:27:50;10.65;;;8.90;;
55007;SDS011;40902;45.116;21.296;2023-11-18T08:30:16;10.55;;;9.45;;
55007;SDS011;40902;45.116;21.296;2023-11-18T08:32:43;12.30;;;9.20;;
55007;SDS011;40902;45.116;21.296;2023-11-18T08:35:10;11.77;;;9.98;;
55007;SDS011;40902;45.116;21.296;2023-11-18T08:37:41;11.48;;;9.77;;
55007;SDS011;40902;45.116;21.296;2023-11-18T08:40:08;10.27;;;9.18;;
55007;SDS011;40902;45.116;21.296;2023-11-18T08:42:41;10.48;;;9.13;;
55007;SDS011;40902;45.116;21.296;2023-11-18T08:45:15;11.95;;;10.13;;
55007;SDS011;40902;45.116;21.296;2023-11-18T08:47:52;9.85;;;8.68;;
55007;SDS011;40902;45.116;21.296;2023-11-18T08:50:18;11.90;;;8.73;;
55007;SDS011;40902;45.116;21.296;2023-11-18T08:52:44;11.00;;;8.95;;
55007;SDS011;40902;45.116;21.296;2023-11-18T08:55:14;11.43;;;9.40;;
55007;SDS011;40902;45.116;21.296;2023-11-18T08:57:48;10.88;;;9.68;;
55007;SDS011;40902;45.116;21.296;2023-11-18T09:00:24;10.40;;;9.27;;
55007;SDS011;40902;45.116;21.296;2023-11-18T09:03:09;9.52;;;8.52;;
55007;SDS011;40902;45.116;21.296;2023-11-18T09:05:43;9.07;;;8.05;;
55007;SDS011;40902;45.116;21.296;2023-11-18T09:08:22;11.13;;;8.73;;
55007;SDS011;40902;45.116;21.296;2023-11-18T09:11:00;9.95;;;8.45;;
55007;SDS011;40902;45.116;21.296;2023-11-18T09:13:27;10.80;;;8.23;;
55007;SDS011;40902;45.116;21.296;2023-11-18T09:15:57;10.90;;;9.32;;
55007;SDS011;40902;45.116;21.296;2023-11-18T09:18:34;11.23;;;8.60;;
55007;SDS011;40902;45.116;21.296;2023-11-18T09:21:01;9.00;;;7.38;;
55007;SDS011;40902;45.116;21.296;2023-11-18T09:23:29;9.27;;;7.70;;
55007;SDS011;40902;45.116;21.296;2023-11-18T09:25:56;9.57;;;7.97;;
55007;SDS011;40902;45.116;21.296;2023-11-18T09:28:26;10.43;;;8.05;;
55007;SDS011;40902;45.116;21.296;2023-11-18T09:30:56;10.32;;;8.43;;
55007;SDS011;40902;45.116;21.296;2023-11-18T09:33:26;9.90;;;8.07;;
55007;SDS011;40902;45.116;21.296;2023-11-18T09:36:00;8.10;;;6.85;;
55007;SDS011;40902;45.116;21.296;2023-11-18T09:38:28;11.20;;;7.15;;
55007;SDS011;40902;45.116;21.296;2023-11-18T09:40:54;8.68;;;7.05;;
55007;SDS011;40902;45.116;21.296;2023-11-18T09:43:21;10.50;;;7.75;;
55007;SDS011;40902;45.116;21.296;2023-11-18T09:45:52;8.73;;;6.88;;
55007;SDS011;40902;45.116;21.296;2023-11-18T09:48:20;11.98;;;7.75;;
55007;SDS011;40902;45.116;21.296;2023-11-18T09:50:50;10.75;;;7.40;;
55007;SDS011;40902;45.116;21.296;2023-11-18T09:53:17;8.38;;;7.18;;
55007;SDS011;40902;45.116;21.296;2023-11-18T09:55:56;10.82;;;8.52;;
55007;SDS011;40902;45.116;21.296;2023-11-18T09:58:38;10.98;;;7.80;;
55007;SDS011;40902;45.116;21.296;2023-11-18T10:01:13;8.30;;;7.07;;
55007;SDS011;40902;45.116;21.296;2023-11-18T10:03:43;9.70;;;7.65;;
55007;SDS011;40902;45.116;21.296;2023-11-18T10:06:12;10.57;;;8.00;;
55007;SDS011;40902;45.116;21.296;2023-11-18T10:08:40;9.38;;;8.00;;
55007;SDS011;40902;45.116;21.296;2023-11-18T10:11:06;7.20;;;6.35;;
55007;SDS011;40902;45.116;21.296;2023-11-18T10:13:34;7.38;;;5.88;;
55007;SDS011;40902;45.116;21.296;2023-11-18T10:16:05;7.15;;;6.10;;
55007;SDS011;40902;45.116;21.296;2023-11-18T10:18:33;8.15;;;6.70;;
55007;SDS011;40902;45.116;21.296;2023-11-18T10:21:01;7.15;;;6.20;;
55007;SDS011;40902;45.116;21.296;2023-11-18T10:23:29;8.15;;;5.78;;
55007;SDS011;40902;45.116;21.296;2023-11-18T10:25:59;9.63;;;7.97;;
55007;SDS011;40902;45.116;21.296;2023-11-18T10:28:30;10.82;;;9.23;;
55007;SDS011;40902;45.116;21.296;2023-11-18T10:31:01;12.90;;;10.00;;
55007;SDS011;40902;45.116;21.296;2023-11-18T10:33:38;12.13;;;8.68;;
55007;SDS011;40902;45.116;21.296;2023-11-18T10:36:07;11.27;;;8.82;;
55007;SDS011;40902;45.116;21.296;2023-11-18T10:38:48;8.05;;;6.20;;
55007;SDS011;40902;45.116;21.296;2023-11-18T10:41:17;9.98;;;8.10;;
55007;SDS011;40902;45.116;21.296;2023-11-18T10:43:44;9.85;;;7.60;;
55007;SDS011;40902;45.116;21.296;2023-11-18T10:46:11;8.75;;;7.05;;
55007;SDS011;40902;45.116;21.296;2023-11-18T10:48:44;6.10;;;5.13;;
55007;SDS011;40902;45.116;21.296;2023-11-18T10:51:18;6.72;;;5.03;;
55007;SDS011;40902;45.116;21.296;2023-11-18T10:53:49;7.88;;;5.53;;
55007;SDS011;40902;45.116;21.296;2023-11-18T10:56:23;7.82;;;5.88;;
55007;SDS011;40902;45.116;21.296;2023-11-18T10:58:52;6.68;;;5.18;;
55007;SDS011;40902;45.116;21.296;2023-11-18T11:01:32;6.20;;;5.32;;
55007;SDS011;40902;45.116;21.296;2023-11-18T11:03:59;6.90;;;5.30;;
55007;SDS011;40902;45.116;21.296;2023-11-18T11:06:29;7.57;;;5.82;;
55007;SDS011;40902;45.116;21.296;2023-11-18T11:08:56;9.45;;;6.93;;
55007;SDS011;40902;45.116;21.296;2023-11-18T11:11:27;11.27;;;6.97;;
55007;SDS011;40902;45.116;21.296;2023-11-18T11:14:02;6.50;;;5.25;;
55007;SDS011;40902;45.116;21.296;2023-11-18T11:16:37;9.70;;;5.72;;
55007;SDS011;40902;45.116;21.296;2023-11-18T11:19:08;6.47;;;4.97;;
55007;SDS011;40902;45.116;21.296;2023-11-18T11:22:09;9.38;;;6.00;;
55007;SDS011;40902;45.116;21.296;2023-11-18T11:24:54;8.43;;;6.30;;
55007;SDS011;40902;45.116;21.296;2023-11-18T11:27:28;7.75;;;6.13;;
55007;SDS011;40902;45.116;21.296;2023-11-18T11:30:08;9.27;;;5.97;;
55007;SDS011;40902;45.116;21.296;2023-11-18T11:32:45;8.25;;;4.97;;
55007;SDS011;40902;45.116;21.296;2023-11-18T11:35:19;6.28;;;5.30;;
55007;SDS011;40902;45.116;21.296;2023-11-18T11:37:48;9.07;;;7.60;;
55007;SDS011;40902;45.116;21.296;2023-11-18T11:40:18;11.68;;;8.25;;
55007;SDS011;40902;45.116;21.296;2023-11-18T11:42:48;10.38;;;8.02;;
55007;SDS011;40902;45.116;21.296;2023-11-18T11:45:22;7.97;;;5.60;;
55007;SDS011;40902;45.116;21.296;2023-11-18T11:47:53;7.00;;;4.95;;
55007;SDS011;40902;45.116;21.296;2023-11-18T11:50:38;8.15;;;5.35;;
55007;SDS011;40902;45.116;21.296;2023-11-18T11:53:14;6.28;;;5.03;;
55007;SDS011;40902;45.116;21.296;2023-11-18T11:55:46;6.82;;;5.22;;
55007;SDS011;40902;45.116;21.296;2023-11-18T11:58:29;7.68;;;5.40;;
55007;SDS011;40902;45.116;21.296;2023-11-18T12:00:59;6.80;;;5.60;;
55007;SDS011;40902;45.116;21.296;2023-11-18T12:03:43;6.45;;;4.65;;
55007;SDS011;40902;45.116;21.296;2023-11-18T12:06:13;9.00;;;5.70;;
55007;SDS011;40902;45.116;21.296;2023-11-18T12:08:48;8.27;;;5.78;;
55007;SDS011;40902;45.116;21.296;2023-11-18T12:11:17;9.45;;;6.03;;
55007;SDS011;40902;45.116;21.296;2023-11-18T12:19:40;5.53;;;4.05;;
55007;SDS011;40902;45.116;21.296;2023-11-18T12:22:16;5.78;;;4.05;;
55007;SDS011;40902;45.116;21.296;2023-11-18T12:44:31;5.15;;;4.15;;
55007;SDS011;40902;45.116;21.296;2023-11-18T12:47:04;5.53;;;4.03;;
55007;SDS011;40902;45.116;21.296;2023-11-18T12:49:40;5.93;;;3.72;;
55007;SDS011;40902;45.116;21.296;2023-11-18T12:52:07;7.07;;;4.82;;
55007;SDS011;40902;45.116;21.296;2023-11-18T12:54:34;6.57;;;4.72;;
55007;SDS011;40902;45.116;21.296;2023-11-18T12:57:03;5.05;;;4.18;;
55007;SDS011;40902;45.116;21.296;2023-11-18T12:59:34;6.47;;;3.90;;
55007;SDS011;40902;45.116;21.296;2023-11-18T13:02:01;6.45;;;4.32;;
55007;SDS011;40902;45.116;21.296;2023-11-18T13:04:32;6.07;;;4.75;;
55007;SDS011;40902;45.116;21.296;2023-11-18T13:07:05;5.30;;;4.47;;
55007;SDS011;40902;45.116;21.296;2023-11-18T13:09:33;6.72;;;4.63;;
55007;SDS011;40902;45.116;21.296;2023-11-18T13:12:01;9.07;;;6.13;;
55007;SDS011;40902;45.116;21.296;2023-11-18T13:14:34;7.07;;;5.60;;
55007;SDS011;40902;45.116;21.296;2023-11-18T13:17:03;9.38;;;6.07;;
55007;SDS011;40902;45.116;21.296;2023-11-18T13:19:34;9.23;;;5.75;;
55007;SDS011;40902;45.116;21.296;2023-11-18T13:22:04;11.02;;;6.88;;
55007;SDS011;40902;45.116;21.296;2023-11-18T13:24:34;9.43;;;6.57;;
55007;SDS011;40902;45.116;21.296;2023-11-18T13:27:01;7.53;;;4.90;;
55007;SDS011;40902;45.116;21.296;2023-11-18T13:29:32;6.60;;;5.32;;
55007;SDS011;40902;45.116;21.296;2023-11-18T13:32:01;8.32;;;6.32;;
55007;SDS011;40902;45.116;21.296;2023-11-18T13:34:32;10.77;;;7.20;;
55007;SDS011;40902;45.116;21.296;2023-11-18T13:37:03;11.15;;;8.43;;
55007;SDS011;40902;45.116;21.296;2023-11-18T13:39:31;7.97;;;5.30;;
55007;SDS011;40902;45.116;21.296;2023-11-18T13:41:57;8.57;;;6.22;;
55007;SDS011;40902;45.116;21.296;2023-11-18T13:44:38;7.63;;;5.47;;
55007;SDS011;40902;45.116;21.296;2023-11-18T13:47:04;7.78;;;5.32;;
55007;SDS011;40902;45.116;21.296;2023-11-18T13:49:33;7.65;;;5.45;;
55007;SDS011;40902;45.116;21.296;2023-11-18T13:52:00;8.68;;;5.57;;
55007;SDS011;40902;45.116;21.296;2023-11-18T13:54:29;9.05;;;6.05;;
55007;SDS011;40902;45.116;21.296;2023-11-18T13:56:55;8.02;;;5.95;;
55007;SDS011;40902;45.116;21.296;2023-11-18T13:59:26;7.78;;;5.20;;
55007;SDS011;40902;45.116;21.296;2023-11-18T14:01:56;6.80;;;5.10;;
55007;SDS011;40902;45.116;21.296;2023-11-18T14:04:23;6.53;;;4.70;;
55007;SDS011;40902;45.116;21.296;2023-11-18T14:06:53;7.18;;;6.10;;
55007;SDS011;40902;45.116;21.296;2023-11-18T14:09:22;8.55;;;6.05;;
55007;SDS011;40902;45.116;21.296;2023-11-18T14:11:54;8.48;;;5.38;;
55007;SDS011;40902;45.116;21.296;2023-11-18T14:14:21;9.10;;;5.57;;
55007;SDS011;40902;45.116;21.296;2023-11-18T14:16:48;6.47;;;4.40;;
55007;SDS011;40902;45.116;21.296;2023-11-18T14:19:14;10.10;;;5.78;;
55007;SDS011;40902;45.116;21.296;2023-11-18T14:21:40;9.52;;;5.38;;
55007;SDS011;40902;45.116;21.296;2023-11-18T14:24:10;9.18;;;6.03;;
55007;SDS011;40902;45.116;21.296;2023-11-18T14:26:37;8.70;;;6.47;;
55007;SDS011;40902;45.116;21.296;2023-11-18T14:29:05;14.02;;;8.15;;
55007;SDS011;40902;45.116;21.296;2023-11-18T14:31:32;9.15;;;6.93;;
55007;SDS011;40902;45.116;21.296;2023-11-18T14:34:00;7.45;;;5.43;;
55007;SDS011;40902;45.116;21.296;2023-11-18T14:36:26;6.53;;;4.90;;
55007;SDS011;40902;45.116;21.296;2023-11-18T14:38:52;6.50;;;4.72;;
55007;SDS011;40902;45.116;21.296;2023-11-18T14:41:18;6.38;;;4.63;;
55007;SDS011;40902;45.116;21.296;2023-11-18T14:43:45;6.43;;;4.90;;
55007;SDS011;40902;45.116;21.296;2023-11-18T14:46:11;5.43;;;4.28;;
55007;SDS011;40902;45.116;21.296;2023-11-18T14:48:38;9.07;;;5.40;;
55007;SDS011;40902;45.116;21.296;2023-11-18T14:51:04;7.07;;;4.53;;
55007;SDS011;40902;45.116;21.296;2023-11-18T14:53:32;6.00;;;4.25;;
55007;SDS011;40902;45.116;21.296;2023-11-18T14:55:59;7.93;;;4.35;;
55007;SDS011;40902;45.116;21.296;2023-11-18T14:58:25;5.68;;;4.53;;
55007;SDS011;40902;45.116;21.296;2023-11-18T15:00:51;6.38;;;4.80;;
55007;SDS011;40902;45.116;21.296;2023-11-18T15:03:17;7.47;;;5.38;;